Time;durP1;ratioP1;P1;durP2;ratioP2;P2;SDS_P1;SDS_P2;PMS_P1;PMS_P2;Temp;Humidity;BMP_temperature;BMP_pressure;BME280_temperature;BME280_humidity;BME280_pressure;Samples;Min_cycle;Max_cycle;Signal;HPM_P1;HPM_P2
2022/09/06 00:01:22;;;;;;;6.55;2.65;;;16.50;99.90;;;;;;5033429;28;20144;-58
2022/09/06 00:03:49;;;;;;;4.88;2.88;;;16.50;99.90;;;;;;5033810;28;20041;-57
2022/09/06 00:06:19;;;;;;;5.30;3.85;;;16.50;99.90;;;;;;5033930;28;20803;-58
2022/09/06 00:08:47;;;;;;;5.32;2.80;;;16.50;99.90;;;;;;5033822;28;20045;-59
2022/09/06 00:11:15;;;;;;;7.10;3.30;;;16.50;99.90;;;;;;5033301;28;20106;-59
2022/09/06 00:13:42;;;;;;;6.43;2.95;;;16.40;99.90;;;;;;5032585;28;20045;-61
2022/09/06 00:16:13;;;;;;;5.40;2.80;;;16.40;99.90;;;;;;5014090;28;20041;-60
2022/09/06 00:18:41;;;;;;;4.40;2.85;;;16.40;99.90;;;;;;5013918;28;20049;-59
2022/09/06 00:21:34;;;;;;;4.97;3.30;;;16.40;99.90;;;;;;5013690;28;20128;-57
2022/09/06 00:24:02;;;;;;;3.90;2.65;;;16.40;99.90;;;;;;5010294;28;20119;-58
2022/09/06 00:26:29;;;;;;;14.20;3.28;;;16.40;99.90;;;;;;5014090;28;20045;-62
2022/09/06 00:28:56;;;;;;;;;;;16.30;99.90;;;;;;5013167;28;20061;-59
2022/09/06 00:31:25;;;;;;;8.65;2.97;;;16.30;99.90;;;;;;5013186;28;20427;-58
2022/09/06 00:33:52;;;;;;;4.88;3.33;;;16.30;99.90;;;;;;5028587;28;20056;-58
2022/09/06 00:36:20;;;;;;;6.25;3.50;;;16.30;99.90;;;;;;5034566;28;20045;-57
2022/09/06 00:38:47;;;;;;;16.23;3.30;;;16.30;99.90;;;;;;5037855;28;20065;-55
2022/09/06 00:41:15;;;;;;;3.85;2.55;;;16.30;99.90;;;;;;5036293;28;20045;-60
2022/09/06 00:43:42;;;;;;;8.63;2.85;;;16.30;99.90;;;;;;5037676;28;20059;-59
2022/09/06 00:46:14;;;;;;;5.63;3.00;;;16.40;99.90;;;;;;5037288;28;20053;-59
2022/09/06 00:48:43;;;;;;;5.03;2.72;;;16.40;99.90;;;;;;5037057;28;20059;-59
2022/09/06 00:51:12;;;;;;;3.95;2.72;;;16.40;99.90;;;;;;5036240;28;20157;-61
2022/09/06 00:53:40;;;;;;;9.80;3.08;;;16.40;99.90;;;;;;5036572;28;20114;-58
2022/09/06 00:56:07;;;;;;;8.38;2.78;;;16.50;99.90;;;;;;5037033;28;20060;-56
2022/09/06 00:58:35;;;;;;;8.38;3.05;;;16.50;99.90;;;;;;5036485;28;20883;-60
2022/09/06 01:01:02;;;;;;;5.22;2.40;;;16.50;99.90;;;;;;5036994;28;20698;-57
2022/09/06 01:03:29;;;;;;;3.83;2.88;;;16.60;99.90;;;;;;5036513;28;20098;-59
2022/09/06 01:06:13;;;;;;;3.53;2.45;;;16.70;99.90;;;;;;5036731;28;20099;-58
2022/09/06 01:08:49;;;;;;;6.32;3.10;;;16.90;99.90;;;;;;5037696;28;20045;-57
2022/09/06 01:11:29;;;;;;;5.93;2.80;;;17.10;99.90;;;;;;5035471;28;20037;-56
2022/09/06 01:14:01;;;;;;;4.10;2.70;;;17.20;99.90;;;;;;5035379;28;20029;-53
2022/09/06 01:16:37;;;;;;;8.80;2.47;;;17.20;99.90;;;;;;5033617;28;20052;-55
2022/09/06 01:19:23;;;;;;;6.22;2.35;;;17.30;99.90;;;;;;5037151;28;20697;-58
2022/09/06 01:22:19;;;;;;;10.80;3.05;;;17.30;99.90;;;;;;5035893;28;20045;-56
2022/09/06 01:24:58;;;;;;;8.63;2.78;;;17.30;99.90;;;;;;5037060;28;20114;-55
2022/09/06 01:27:58;;;;;;;7.05;2.50;;;17.40;99.90;;;;;;5036194;28;20045;-53
2022/09/06 01:30:25;;;;;;;3.88;2.80;;;17.40;99.90;;;;;;5037050;28;20045;-58
2022/09/06 01:32:59;;;;;;;10.40;2.65;;;17.40;99.90;;;;;;5035714;28;20049;-53
2022/09/06 01:35:36;;;;;;;8.65;3.08;;;17.50;99.90;;;;;;5034786;28;20072;-57
2022/09/06 01:38:04;;;;;;;8.18;2.20;;;17.50;99.90;;;;;;5036305;28;20045;-57
2022/09/06 01:40:35;;;;;;;3.72;2.17;;;17.50;99.90;;;;;;5036103;28;20586;-55
2022/09/06 01:43:05;;;;;;;5.00;2.55;;;17.50;99.90;;;;;;5036316;28;20114;-56
2022/09/06 01:45:55;;;;;;;3.17;2.35;;;17.50;99.90;;;;;;5034647;28;20139;-55
2022/09/06 01:48:34;;;;;;;4.78;2.67;;;17.50;99.90;;;;;;5035965;28;20045;-58
2022/09/06 01:51:23;;;;;;;6.15;2.25;;;17.60;99.90;;;;;;5035541;28;20824;-58
2022/09/06 01:54:08;;;;;;;4.93;2.65;;;17.60;99.90;;;;;;5036432;28;20049;-58
2022/09/06 01:56:51;;;;;;;4.20;2.67;;;17.60;99.90;;;;;;5034964;28;20041;-56
2022/09/06 01:59:27;;;;;;;3.53;2.50;;;17.60;99.90;;;;;;5016560;28;20041;-57
2022/09/06 02:02:15;;;;;;;4.80;3.00;;;17.60;99.90;;;;;;5015534;28;20549;-53
2022/09/06 02:04:50;;;;;;;5.13;2.63;;;17.50;99.90;;;;;;5016085;28;20046;-59
2022/09/06 02:07:24;;;;;;;5.13;2.90;;;17.40;99.90;;;;;;5015867;28;20058;-57
2022/09/06 02:10:11;;;;;;;5.50;2.88;;;17.30;99.90;;;;;;5016052;28;20060;-58
2022/09/06 02:12:41;;;;;;;4.97;3.27;;;17.20;99.90;;;;;;5021158;28;20815;-58
2022/09/06 02:15:18;;;;;;;4.22;2.67;;;17.10;99.90;;;;;;5035680;28;20495;-58
2022/09/06 02:17:53;;;;;;;4.85;2.97;;;17.00;99.90;;;;;;5035477;28;20071;-57
2022/09/06 02:20:25;;;;;;;2.90;2.50;;;16.90;99.90;;;;;;5035281;28;20060;-62
2022/09/06 02:22:56;;;;;;;3.58;2.95;;;16.90;99.90;;;;;;5036081;28;20075;-58
2022/09/06 02:25:28;;;;;;;4.15;2.65;;;16.80;99.90;;;;;;5035080;28;20102;-57
2022/09/06 02:27:55;;;;;;;6.90;3.20;;;16.80;99.90;;;;;;5035532;28;20059;-55
2022/09/06 02:30:22;;;;;;;6.40;2.65;;;16.70;99.90;;;;;;5034722;28;20041;-60
2022/09/06 02:33:02;;;;;;;6.10;3.03;;;16.70;99.90;;;;;;5035392;28;20053;-63
2022/09/06 02:35:29;;;;;;;6.07;2.55;;;16.70;99.90;;;;;;5029713;28;20114;-57
2022/09/06 02:37:56;;;;;;;5.45;2.60;;;16.70;99.90;;;;;;5034871;28;20045;-62
2022/09/06 02:40:23;;;;;;;8.52;3.58;;;16.70;99.90;;;;;;5034787;28;20072;-60
2022/09/06 02:42:50;;;;;;;9.68;3.22;;;16.80;99.90;;;;;;5034816;28;20037;-59
2022/09/06 02:45:17;;;;;;;;;;;16.80;99.90;;;;;;5035851;28;20053;-58
2022/09/06 02:47:43;;;;;;;5.32;3.70;;;16.90;99.90;;;;;;5034920;28;19951;-58
2022/09/06 02:50:12;;;;;;;15.50;4.70;;;16.90;99.90;;;;;;5035476;28;20049;-58
2022/09/06 02:52:38;;;;;;;17.20;5.50;;;17.00;99.90;;;;;;5034801;28;20048;-52
2022/09/06 02:55:06;;;;;;;;;;;16.90;99.90;;;;;;5035296;28;20056;-53
2022/09/06 02:57:32;;;;;;;8.30;4.47;;;16.70;99.90;;;;;;5034335;28;20356;-54
2022/09/06 02:59:59;;;;;;;;;;;16.50;99.90;;;;;;5034462;28;20045;-57
2022/09/06 03:02:26;;;;;;;15.02;3.92;;;16.40;99.90;;;;;;5018555;28;19925;-53
2022/09/06 03:04:52;;;;;;;10.23;4.97;;;16.20;99.90;;;;;;5033838;28;20041;-52
2022/09/06 03:07:19;;;;;;;;;;;16.10;99.90;;;;;;5035410;28;20040;-55
2022/09/06 03:09:46;;;;;;;16.98;5.40;;;16.10;99.90;;;;;;5034314;28;20558;-53
2022/09/06 03:12:13;;;;;;;12.48;5.18;;;16.00;99.90;;;;;;5034319;28;20052;-52
2022/09/06 03:14:40;;;;;;;6.88;4.28;;;15.90;99.90;;;;;;5031557;28;20525;-54
2022/09/06 03:17:07;;;;;;;7.18;4.03;;;15.80;99.90;;;;;;5034129;28;20102;-52
2022/09/06 03:19:33;;;;;;;;;;;15.70;99.90;;;;;;5034402;28;20781;-57
2022/09/06 03:22:00;;;;;;;9.07;4.88;;;15.70;99.90;;;;;;5033086;28;19970;-52
2022/09/06 03:24:27;;;;;;;9.93;4.90;;;15.60;99.90;;;;;;5033469;28;20536;-53
2022/09/06 03:26:53;;;;;;;14.43;5.90;;;15.60;99.90;;;;;;5034010;28;20045;-54
2022/09/06 03:29:20;;;;;;;;;;;15.60;99.90;;;;;;5035143;28;20041;-54
2022/09/06 03:31:47;;;;;;;8.27;5.53;;;15.50;99.90;;;;;;5034267;28;20592;-54
2022/09/06 03:34:13;;;;;;;12.75;4.97;;;15.50;99.90;;;;;;5034142;28;20460;-54
2022/09/06 03:36:40;;;;;;;;;;;15.40;99.90;;;;;;5030055;28;20416;-56
2022/09/06 03:39:07;;;;;;;14.02;4.80;;;15.40;99.90;;;;;;5033248;28;19948;-53
2022/09/06 03:41:34;;;;;;;12.07;4.63;;;15.40;99.90;;;;;;5034002;28;20056;-54
2022/09/06 03:44:00;;;;;;;;;;;15.30;99.90;;;;;;5034502;28;20126;-53
2022/09/06 03:46:29;;;;;;;13.65;6.88;;;15.30;99.90;;;;;;5034329;28;19931;-51
2022/09/06 03:48:56;;;;;;;9.38;5.13;;;15.20;99.90;;;;;;5034266;28;20547;-54
2022/09/06 03:51:23;;;;;;;9.75;4.90;;;15.20;99.90;;;;;;5033841;28;20056;-55
2022/09/06 03:53:50;;;;;;;10.68;4.95;;;15.20;99.90;;;;;;5034273;28;20055;-54
2022/09/06 03:56:17;;;;;;;;;;;15.20;99.90;;;;;;5033614;28;20052;-56
2022/09/06 03:58:44;;;;;;;7.93;5.45;;;15.10;99.90;;;;;;5034291;28;19978;-56
2022/09/06 04:01:11;;;;;;;;;;;15.10;99.90;;;;;;5032747;28;20045;-56
2022/09/06 04:03:38;;;;;;;10.45;4.72;;;15.10;99.90;;;;;;5033643;28;19937;-55
2022/09/06 04:06:06;;;;;;;19.98;5.30;;;15.10;99.90;;;;;;5034039;28;20073;-56
2022/09/06 04:08:34;;;;;;;12.70;4.88;;;15.10;99.90;;;;;;5033777;28;20098;-56
2022/09/06 04:11:01;;;;;;;7.70;4.45;;;15.10;99.90;;;;;;5033905;28;20812;-54
2022/09/06 04:13:28;;;;;;;6.72;4.50;;;15.10;99.90;;;;;;5032451;28;20103;-52
2022/09/06 04:15:56;;;;;;;26.08;5.68;;;15.10;99.90;;;;;;5016627;28;20123;-53
2022/09/06 04:18:23;;;;;;;25.60;4.97;;;15.10;99.90;;;;;;5013220;28;20046;-56
2022/09/06 04:20:51;;;;;;;17.30;5.10;;;15.10;99.90;;;;;;5014145;28;20132;-55
2022/09/06 04:23:19;;;;;;;12.30;4.78;;;15.20;99.90;;;;;;5013339;28;20053;-56
2022/09/06 04:25:51;;;;;;;11.48;4.63;;;15.30;99.90;;;;;;5014010;28;20034;-56
2022/09/06 04:28:19;;;;;;;11.50;5.13;;;15.20;99.90;;;;;;5013888;28;20099;-55
2022/09/06 04:30:57;;;;;;;10.02;3.88;;;15.20;99.90;;;;;;5011720;28;20095;-56
2022/09/06 04:33:31;;;;;;;14.35;5.10;;;15.20;99.90;;;;;;4996172;28;20045;-56
2022/09/06 04:36:00;;;;;;;14.38;4.25;;;15.20;99.90;;;;;;5014016;28;20054;-56
2022/09/06 04:38:29;;;;;;;15.55;4.20;;;15.20;99.90;;;;;;5028775;28;20041;-53
2022/09/06 04:40:56;;;;;;;15.32;5.03;;;15.20;99.90;;;;;;5032390;28;20124;-55
2022/09/06 04:43:23;;;;;;;9.30;3.97;;;15.20;99.90;;;;;;5033228;28;20037;-55
2022/09/06 04:45:49;;;;;;;8.25;3.92;;;15.20;99.90;;;;;;5033456;28;20056;-56
2022/09/06 04:48:16;;;;;;;8.27;4.13;;;15.20;99.90;;;;;;5033157;28;20059;-54
2022/09/06 04:50:43;;;;;;;;;;;15.20;99.90;;;;;;5032951;28;20569;-54
2022/09/06 04:53:10;;;;;;;9.05;4.15;;;15.20;99.90;;;;;;5032162;28;19978;-56
2022/09/06 04:55:36;;;;;;;;;;;15.20;99.90;;;;;;5034071;28;20045;-55
2022/09/06 04:58:04;;;;;;;17.63;4.18;;;15.20;99.90;;;;;;5032813;28;20271;-54
2022/09/06 05:00:32;;;;;;;15.23;4.63;;;15.20;99.90;;;;;;5031564;28;20045;-56
2022/09/06 05:02:59;;;;;;;10.55;5.03;;;15.20;99.90;;;;;;5032707;28;20052;-56
2022/09/06 05:05:26;;;;;;;;;;;15.20;99.90;;;;;;5033671;28;20037;-55
2022/09/06 05:07:54;;;;;;;16.23;4.30;;;15.20;99.90;;;;;;5032178;28;20813;-55
2022/09/06 05:10:22;;;;;;;16.58;4.28;;;15.20;99.90;;;;;;5032427;28;20048;-55
2022/09/06 05:12:50;;;;;;;8.98;3.42;;;15.20;99.90;;;;;;5031871;28;20060;-56
2022/09/06 05:15:18;;;;;;;8.32;4.00;;;15.20;99.90;;;;;;5031035;28;20135;-58
2022/09/06 05:17:45;;;;;;;10.13;4.28;;;15.20;99.90;;;;;;5033250;28;20045;-54
2022/09/06 05:20:12;;;;;;;;;;;15.20;99.90;;;;;;5033436;28;20708;-57
2022/09/06 05:22:40;;;;;;;16.40;4.60;;;15.20;99.90;;;;;;5035504;28;19924;-56
2022/09/06 05:25:08;;;;;;;11.35;4.03;;;15.20;99.90;;;;;;5036370;28;20045;-55
2022/09/06 05:27:35;;;;;;;7.53;3.97;;;15.20;99.90;;;;;;5035930;28;20124;-56
2022/09/06 05:30:03;;;;;;;15.27;4.18;;;15.20;99.90;;;;;;5035695;28;20053;-56
2022/09/06 05:32:30;;;;;;;7.55;3.55;;;15.20;99.90;;;;;;5035595;28;20060;-56
2022/09/06 05:34:56;;;;;;;;;;;15.20;99.90;;;;;;5037045;28;20041;-58
2022/09/06 05:37:23;;;;;;;11.13;3.75;;;15.20;99.90;;;;;;5035088;28;19924;-55
2022/09/06 05:39:50;;;;;;;10.48;3.53;;;15.20;99.90;;;;;;5029469;28;20037;-54
2022/09/06 05:42:17;;;;;;;7.75;3.72;;;15.20;99.90;;;;;;5035645;28;20549;-56
2022/09/06 05:44:45;;;;;;;9.35;4.22;;;15.20;99.90;;;;;;5034519;28;20077;-54
2022/09/06 05:47:12;;;;;;;10.80;3.67;;;15.20;99.90;;;;;;5037890;28;20047;-55
2022/09/06 05:49:40;;;;;;;8.98;3.60;;;15.20;99.90;;;;;;5035238;28;20040;-57
2022/09/06 05:52:07;;;;;;;14.52;4.05;;;15.20;99.90;;;;;;5035915;28;20269;-53
2022/09/06 05:54:35;;;;;;;9.70;3.90;;;15.20;99.90;;;;;;5017095;28;20056;-52
2022/09/06 05:57:02;;;;;;;8.27;3.78;;;15.20;99.90;;;;;;5036275;28;20102;-57
2022/09/06 05:59:29;;;;;;;5.95;3.28;;;15.20;99.90;;;;;;5035186;28;20065;-55
2022/09/06 06:01:56;;;;;;;15.02;3.50;;;15.30;99.90;;;;;;5018422;28;20618;-55
2022/09/06 06:04:23;;;;;;;7.70;3.22;;;15.30;99.90;;;;;;5018584;28;20041;-53
2022/09/06 06:06:50;;;;;;;;;;;15.40;99.90;;;;;;5036361;28;20037;-54
2022/09/06 06:09:17;;;;;;;7.10;4.10;;;15.40;99.90;;;;;;5036338;28;19956;-54
2022/09/06 06:11:44;;;;;;;10.65;4.20;;;15.40;99.90;;;;;;5035282;28;20045;-54
2022/09/06 06:14:10;;;;;;;14.02;5.30;;;15.40;99.90;;;;;;5032481;28;20045;-53
2022/09/06 06:16:37;;;;;;;;;;;15.40;99.90;;;;;;5016832;28;20060;-52
2022/09/06 06:19:04;;;;;;;10.05;3.70;;;15.40;99.90;;;;;;5015398;28;19933;-52
2022/09/06 06:21:31;;;;;;;;;;;15.50;99.90;;;;;;5016795;28;20380;-54
2022/09/06 06:24:03;;;;;;;7.75;4.72;;;15.60;99.90;;;;;;5014979;28;19929;-52
2022/09/06 06:26:33;;;;;;;14.00;3.72;;;15.70;99.90;;;;;;5015815;28;20041;-53
2022/09/06 06:29:02;;;;;;;5.80;3.55;;;15.80;99.90;;;;;;5014765;28;20069;-53
2022/09/06 06:31:31;;;;;;;6.72;3.63;;;15.90;99.90;;;;;;5029024;28;20059;-53
2022/09/06 06:33:58;;;;;;;5.75;3.70;;;15.90;99.90;;;;;;5035167;28;20496;-52
2022/09/06 06:36:29;;;;;;;11.63;4.60;;;15.90;99.90;;;;;;5035426;28;20601;-51
2022/09/06 06:38:57;;;;;;;6.78;3.80;;;15.90;99.90;;;;;;5031251;28;20040;-51
2022/09/06 06:41:26;;;;;;;6.43;3.78;;;15.80;99.90;;;;;;5032479;28;20053;-52
2022/09/06 06:43:53;;;;;;;7.60;3.92;;;15.80;99.90;;;;;;5034724;28;20037;-50
2022/09/06 06:46:22;;;;;;;7.88;4.20;;;15.80;99.90;;;;;;5034431;28;20099;-52
2022/09/06 06:48:48;;;;;;;10.35;4.03;;;15.80;99.90;;;;;;5033668;28;20082;-52
2022/09/06 06:51:22;;;;;;;10.52;5.13;;;15.80;99.90;;;;;;5034878;28;20045;-54
2022/09/06 06:53:49;;;;;;;10.30;4.50;;;15.90;99.90;;;;;;5034058;28;20045;-50
2022/09/06 06:56:25;;;;;;;10.13;5.15;;;15.90;99.90;;;;;;5034966;28;20052;-53
2022/09/06 06:58:54;;;;;;;6.53;4.40;;;15.90;99.90;;;;;;5034108;28;20041;-52
2022/09/06 07:01:22;;;;;;;9.73;5.07;;;16.00;99.90;;;;;;5034651;28;20076;-55
2022/09/06 07:03:49;;;;;;;11.15;5.43;;;16.10;99.90;;;;;;5024094;28;20041;-54
2022/09/06 07:06:17;;;;;;;8.05;4.78;;;16.30;99.90;;;;;;5026153;28;20048;-54
2022/09/06 07:08:45;;;;;;;12.30;4.00;;;16.40;99.90;;;;;;5021447;28;20095;-56
2022/09/06 07:11:14;;;;;;;7.47;3.63;;;16.60;99.90;;;;;;5032080;28;20121;-56
2022/09/06 07:13:41;;;;;;;8.75;3.80;;;16.80;99.90;;;;;;5033854;28;20037;-54
2022/09/06 07:16:08;;;;;;;5.22;3.20;;;17.00;99.90;;;;;;5015209;28;20056;-54
2022/09/06 07:18:36;;;;;;;7.60;2.70;;;17.20;99.90;;;;;;5019380;28;20454;-55
2022/09/06 07:21:03;;;;;;;6.93;3.15;;;17.30;99.90;;;;;;5023980;28;20044;-54
2022/09/06 07:23:50;;;;;;;6.47;2.95;;;17.50;99.90;;;;;;5022567;28;20087;-57
2022/09/06 07:26:35;;;;;;;8.95;2.75;;;17.60;99.90;;;;;;5023104;28;20116;-56
2022/09/06 07:29:05;;;;;;;6.70;3.40;;;17.70;99.90;;;;;;5024712;28;20991;-61
2022/09/06 07:31:32;;;;;;;5.88;2.92;;;17.90;99.90;;;;;;5022522;28;20045;-62
2022/09/06 07:34:19;;;;;;;7.60;2.85;;;18.00;99.90;;;;;;5013051;28;20045;-58
2022/09/06 07:36:47;;;;;;;8.35;3.03;;;18.20;99.90;;;;;;5014391;28;20037;-55
2022/09/06 07:39:14;;;;;;;9.73;3.30;;;18.70;99.90;;;;;;5016711;28;20184;-56
2022/09/06 07:41:42;;;;;;;8.55;3.03;;;19.20;99.90;;;;;;5026834;28;20183;-54
2022/09/06 07:44:09;;;;;;;9.77;3.17;;;19.70;99.90;;;;;;5033262;28;20041;-54
2022/09/06 07:46:36;;;;;;;5.32;2.72;;;20.10;99.90;;;;;;5034059;28;20048;-54
2022/09/06 07:49:04;;;;;;;4.72;2.60;;;20.50;99.90;;;;;;5033343;28;20052;-52
2022/09/06 07:51:32;;;;;;;8.80;2.97;;;20.90;99.90;;;;;;5033975;28;20053;-53
2022/09/06 07:53:59;;;;;;;13.13;2.50;;;21.20;99.90;;;;;;5032193;28;20644;-53
2022/09/06 07:56:46;;;;;;;10.60;2.47;;;21.60;99.90;;;;;;5034150;28;20128;-53
2022/09/06 07:59:13;;;;;;;6.30;2.38;;;21.90;99.90;;;;;;5032260;28;20044;-54
2022/09/06 08:01:40;;;;;;;9.82;3.28;;;22.30;99.90;;;;;;5033832;28;20045;-54
2022/09/06 08:04:12;;;;;;;11.90;2.55;;;22.60;99.90;;;;;;5033600;28;20568;-54
2022/09/06 08:06:48;;;;;;;8.95;2.40;;;22.90;99.90;;;;;;5033624;28;20041;-54
2022/09/06 08:09:35;;;;;;;7.70;2.53;;;23.10;99.90;;;;;;5033824;28;20060;-50
2022/09/06 08:12:06;;;;;;;6.95;2.05;;;23.30;99.90;;;;;;5033505;28;20499;-61
2022/09/06 08:14:33;;;;;;;5.47;2.22;;;23.50;99.90;;;;;;5033535;28;20045;-55
2022/09/06 08:17:01;;;;;;;6.40;2.70;;;23.60;99.90;;;;;;5033588;28;20044;-51
2022/09/06 08:19:28;;;;;;;7.63;2.70;;;23.60;99.90;;;;;;5033365;28;20048;-53
2022/09/06 08:21:55;;;;;;;8.60;2.85;;;23.80;99.90;;;;;;5033347;28;20075;-54
2022/09/06 08:24:22;;;;;;;7.43;2.10;;;23.90;99.90;;;;;;5031876;28;20053;-55
2022/09/06 08:26:49;;;;;;;9.60;2.85;;;23.80;99.90;;;;;;5034179;28;20087;-54
2022/09/06 08:29:15;;;;;;;6.57;3.00;;;23.70;99.90;;;;;;5033077;28;20047;-51
2022/09/06 08:31:44;;;;;;;7.97;1.90;;;23.90;99.90;;;;;;5031886;28;20045;-53
2022/09/06 08:34:13;;;;;;;6.80;2.50;;;23.90;99.90;;;;;;5033086;28;20068;-52
2022/09/06 08:36:40;;;;;;;8.93;2.25;;;24.00;99.90;;;;;;5033780;28;20061;-52
2022/09/06 08:39:08;;;;;;;3.88;2.03;;;24.10;99.90;;;;;;5033041;28;20037;-52
2022/09/06 08:41:55;;;;;;;8.88;2.33;;;24.10;99.90;;;;;;5025986;28;20149;-54
2022/09/06 08:44:28;;;;;;;8.45;2.60;;;24.00;99.90;;;;;;5013839;28;20714;-53
2022/09/06 08:47:17;;;;;;;4.68;2.35;;;23.80;99.90;;;;;;5013745;28;20744;-51
2022/09/06 08:49:51;;;;;;;5.43;2.00;;;23.90;99.90;;;;;;5012221;28;20065;-51
2022/09/06 08:52:30;;;;;;;6.53;2.45;;;24.20;99.90;;;;;;5012686;28;20057;-55
2022/09/06 08:55:22;;;;;;;7.95;2.50;;;24.60;99.90;;;;;;5013432;28;20614;-54
2022/09/06 08:57:56;;;;;;;7.82;2.55;;;24.70;99.90;;;;;;5023328;28;20053;-52
2022/09/06 09:00:23;;;;;;;6.38;2.58;;;24.70;99.90;;;;;;5037586;28;20049;-54
2022/09/06 09:03:13;;;;;;;6.47;2.45;;;24.80;99.90;;;;;;5034864;28;20091;-53
2022/09/06 09:05:45;;;;;;;4.15;2.08;;;25.00;99.90;;;;;;5020485;28;20040;-51
2022/09/06 09:08:23;;;;;;;13.43;2.72;;;25.20;99.90;;;;;;5035529;28;20045;-54
2022/09/06 09:10:57;;;;;;;5.65;2.05;;;25.30;99.90;;;;;;5037310;28;20120;-54
2022/09/06 09:13:37;;;;;;;11.23;3.75;;;25.20;99.90;;;;;;5035907;28;20102;-55
2022/09/06 09:16:05;;;;;;;5.05;2.30;;;25.20;99.90;;;;;;5035620;28;20052;-55
2022/09/06 09:18:37;;;;;;;8.57;2.42;;;25.20;99.90;;;;;;5037039;28;20048;-53
2022/09/06 09:21:04;;;;;;;10.38;3.28;;;25.10;99.90;;;;;;5036211;28;20041;-53
2022/09/06 09:23:31;;;;;;;12.27;3.28;;;25.00;99.90;;;;;;5036789;28;20542;-56
2022/09/06 09:26:09;;;;;;;12.07;3.00;;;24.70;99.90;;;;;;5036222;28;20049;-53
2022/09/06 09:28:36;;;;;;;10.23;3.20;;;24.40;99.90;;;;;;5037023;28;20057;-52
2022/09/06 09:31:02;;;;;;;19.90;3.08;;;24.10;99.90;;;;;;5036280;28;20041;-54
2022/09/06 09:33:37;;;;;;;13.45;3.22;;;23.80;99.90;;;;;;5036185;28;20515;-54
2022/09/06 09:36:08;;;;;;;14.45;3.00;;;23.50;99.90;;;;;;5036629;28;20079;-53
2022/09/06 09:38:48;;;;;;;8.38;3.45;;;23.20;99.90;;;;;;5035116;28;20075;-52
2022/09/06 09:41:31;;;;;;;12.57;4.57;;;22.90;99.90;;;;;;5034532;28;20052;-55
2022/09/06 09:44:01;;;;;;;12.65;3.95;;;22.50;99.90;;;;;;5031805;28;20076;-51
2022/09/06 09:46:33;;;;;;;12.63;3.55;;;22.20;99.90;;;;;;5036789;28;20111;-54
2022/09/06 09:49:33;;;;;;;15.20;4.78;;;21.90;99.90;;;;;;5035675;28;20114;-53
2022/09/06 09:52:10;;;;;;;14.38;4.05;;;21.60;99.90;;;;;;5014061;28;20049;-53
2022/09/06 09:54:41;;;;;;;12.48;5.38;;;21.30;99.90;;;;;;5035500;28;20479;-52
2022/09/06 09:57:16;;;;;;;10.93;3.78;;;21.10;99.90;;;;;;5036042;28;20106;-50
2022/09/06 09:59:59;;;;;;;17.33;4.53;;;20.90;99.90;;;;;;5036207;28;20690;-53
2022/09/06 10:02:37;;;;;;;8.30;4.20;;;20.70;99.90;;;;;;5036321;28;20075;-53
2022/09/06 10:05:11;;;;;;;7.60;4.20;;;20.50;99.90;;;;;;5035200;28;20099;-51
2022/09/06 10:07:57;;;;;;;19.35;4.80;;;20.30;99.90;;;;;;5036146;28;20045;-54
2022/09/06 10:10:25;;;;;;;13.77;5.40;;;20.10;99.90;;;;;;5035363;28;20045;-53
2022/09/06 10:13:19;;;;;;;21.02;5.22;;;20.10;99.90;;;;;;5034095;28;20077;-53
2022/09/06 10:15:46;;;;;;;11.00;4.60;;;19.90;99.90;;;;;;5035586;28;20057;-54
2022/09/06 10:18:19;;;;;;;9.13;4.55;;;19.90;99.90;;;;;;5035983;28;20044;-53
2022/09/06 10:21:00;;;;;;;8.00;3.70;;;19.80;99.90;;;;;;5036253;28;20041;-54
2022/09/06 10:23:48;;;;;;;9.55;4.53;;;19.80;99.90;;;;;;5033883;28;20049;-54
2022/09/06 10:26:57;;;;;;;8.63;3.67;;;19.80;99.90;;;;;;5035676;28;20133;-55
2022/09/06 10:29:37;;;;;;;9.90;3.90;;;19.80;99.90;;;;;;5034446;28;20041;-53
2022/09/06 10:32:08;;;;;;;13.60;4.68;;;19.80;99.90;;;;;;5035928;28;20779;-52
2022/09/06 10:34:42;;;;;;;9.52;4.60;;;19.70;99.90;;;;;;5034588;28;20041;-50
2022/09/06 10:37:12;;;;;;;11.65;5.15;;;19.70;99.90;;;;;;5036114;28;20087;-50
2022/09/06 10:39:55;;;;;;;11.95;5.35;;;19.80;99.90;;;;;;5034819;28;20041;-54
2022/09/06 10:42:41;;;;;;;10.38;4.13;;;19.80;99.90;;;;;;5034653;28;20129;-51
2022/09/06 10:45:27;;;;;;;12.65;5.18;;;19.90;99.90;;;;;;5031917;28;20056;-51
2022/09/06 10:48:08;;;;;;;9.48;4.95;;;20.00;99.90;;;;;;5035325;28;20045;-53
2022/09/06 10:50:49;;;;;;;13.38;5.28;;;20.10;99.90;;;;;;5034528;28;20041;-59
2022/09/06 10:53:26;;;;;;;13.30;4.57;;;20.40;99.90;;;;;;5035061;28;20686;-61
2022/09/06 10:56:14;;;;;;;13.95;4.28;;;20.60;99.90;;;;;;5034836;28;20068;-59
2022/09/06 10:59:04;;;;;;;14.75;4.45;;;20.80;99.90;;;;;;5033420;28;20047;-54
2022/09/06 11:02:14;;;;;;;18.10;5.40;;;21.20;99.90;;;;;;5034493;28;20503;-54
2022/09/06 11:04:44;;;;;;;16.98;4.93;;;21.60;99.90;;;;;;5034613;28;20053;-53
2022/09/06 11:07:36;;;;;;;13.50;4.03;;;22.00;99.90;;;;;;5034474;28;20037;-55
2022/09/06 11:10:20;;;;;;;8.77;3.60;;;22.30;99.90;;;;;;5035078;28;20049;-54
2022/09/06 11:13:02;;;;;;;18.65;5.18;;;22.60;99.90;;;;;;5034458;28;20139;-56
2022/09/06 11:15:54;;;;;;;13.23;4.40;;;22.90;99.90;;;;;;5034885;28;20056;-54
2022/09/06 11:18:50;;;;;;;17.50;4.18;;;23.10;99.90;;;;;;5033945;28;20132;-54
2022/09/06 11:21:45;;;;;;;15.38;4.53;;;23.50;99.90;;;;;;5032995;28;20056;-54
2022/09/06 11:24:29;;;;;;;18.45;4.07;;;23.80;99.90;;;;;;5034285;28;20048;-56
2022/09/06 11:27:31;;;;;;;14.23;3.88;;;24.00;99.90;;;;;;5034705;28;20059;-57
2022/09/06 11:30:00;;;;;;;12.57;3.63;;;24.20;99.90;;;;;;5034322;28;20106;-56
2022/09/06 11:32:40;;;;;;;12.75;3.53;;;24.30;99.90;;;;;;5032893;28;20045;-55
2022/09/06 11:35:10;;;;;;;11.93;3.67;;;24.20;99.90;;;;;;5034604;28;20440;-57
2022/09/06 11:37:43;;;;;;;12.93;3.40;;;24.30;99.90;;;;;;5033569;28;20553;-54
2022/09/06 11:40:23;;;;;;;15.85;3.30;;;24.50;99.90;;;;;;5032520;28;20049;-55
2022/09/06 11:42:50;;;;;;;14.82;2.97;;;24.80;99.90;;;;;;5033393;28;20048;-55
2022/09/06 11:45:20;;;;;;;12.38;3.80;;;25.00;99.90;;;;;;5032437;28;20132;-56
2022/09/06 11:47:50;;;;;;;13.07;3.08;;;25.30;99.90;;;;;;5033944;28;20041;-54
2022/09/06 11:50:20;;;;;;;16.42;2.97;;;25.70;99.90;;;;;;5033007;28;20270;-55
2022/09/06 11:53:03;;;;;;;20.55;3.88;;;25.90;99.90;;;;;;5033685;28;20048;-54
2022/09/06 11:55:42;;;;;;;10.30;2.58;;;26.00;99.90;;;;;;5034390;28;20052;-55
2022/09/06 11:58:41;;;;;;;12.10;4.20;;;26.10;99.90;;;;;;5034165;28;20191;-56
2022/09/06 12:01:17;;;;;;;12.00;2.92;;;26.30;99.90;;;;;;5023190;28;20119;-56
2022/09/06 12:03:47;;;;;;;12.77;2.90;;;26.50;99.90;;;;;;5015118;28;20056;-56
2022/09/06 12:06:41;;;;;;;13.30;3.65;;;26.50;99.90;;;;;;5034390;28;20094;-55
2022/09/06 12:09:28;;;;;;;21.60;3.63;;;26.40;99.90;;;;;;5034531;28;20041;-55
2022/09/06 12:11:57;;;;;;;7.50;2.60;;;26.30;99.90;;;;;;5033031;28;20120;-52
2022/09/06 12:14:35;;;;;;;13.45;3.38;;;26.20;99.90;;;;;;5018276;28;20041;-53
2022/09/06 12:17:03;;;;;;;11.30;2.47;;;26.10;99.90;;;;;;5033429;28;20041;-55
2022/09/06 12:19:48;;;;;;;12.25;3.25;;;25.90;99.90;;;;;;5033801;28;20134;-55
2022/09/06 12:22:28;;;;;;;9.27;3.03;;;25.70;99.90;;;;;;5033515;28;20045;-54
2022/09/06 12:25:15;;;;;;;11.45;4.03;;;25.50;99.90;;;;;;5033895;28;20596;-53
2022/09/06 12:27:58;;;;;;;;;;;25.30;99.90;;;;;;5034325;28;20052;-55
2022/09/06 12:30:38;;;;;;;13.05;3.50;;;25.00;99.90;;;;;;5032580;28;19928;-54
2022/09/06 12:33:16;;;;;;;9.05;2.53;;;24.70;99.90;;;;;;5037241;28;20049;-53
2022/09/06 12:35:42;;;;;;;10.85;2.80;;;24.50;99.90;;;;;;5038116;28;20045;-55
2022/09/06 12:38:27;;;;;;;7.78;2.55;;;24.30;99.90;;;;;;5037426;28;20045;-55
2022/09/06 12:40:57;;;;;;;10.43;2.95;;;24.00;99.90;;;;;;5037563;28;20029;-55
2022/09/06 12:43:25;;;;;;;9.77;3.05;;;23.90;99.90;;;;;;5038468;28;20045;-54
2022/09/06 12:45:52;;;;;;;7.95;2.53;;;23.60;99.90;;;;;;5033593;28;20048;-55
2022/09/06 12:48:28;;;;;;;12.15;3.15;;;23.30;99.90;;;;;;5017829;28;20041;-53
2022/09/06 12:51:15;;;;;;;15.27;3.33;;;23.20;99.90;;;;;;5016207;28;20054;-56
2022/09/06 12:53:51;;;;;;;14.85;4.47;;;22.90;99.90;;;;;;5017657;28;20054;-56
2022/09/06 12:56:23;;;;;;;19.58;3.53;;;22.80;99.90;;;;;;5027794;28;20040;-56
2022/09/06 12:58:50;;;;;;;14.43;3.25;;;22.50;99.90;;;;;;5037003;28;20120;-57
2022/09/06 13:01:27;;;;;;;9.95;3.35;;;22.40;99.90;;;;;;5017837;28;20045;-57
2022/09/06 13:04:17;;;;;;;11.80;3.47;;;22.20;99.90;;;;;;5016916;28;20099;-57
2022/09/06 13:06:46;;;;;;;13.30;3.50;;;22.10;99.90;;;;;;5017555;28;20041;-58
2022/09/06 13:09:17;;;;;;;14.38;3.42;;;22.00;99.90;;;;;;5017247;28;20207;-58
2022/09/06 13:11:47;;;;;;;10.02;3.58;;;21.90;99.90;;;;;;5018320;28;20050;-56
2022/09/06 13:14:28;;;;;;;10.55;3.50;;;21.80;99.90;;;;;;5035416;28;20115;-57
2022/09/06 13:16:58;;;;;;;14.65;3.75;;;21.70;99.90;;;;;;5037803;28;20049;-57